createdAt,value
2023-01-17T00:00:45.734Z,2.40
2023-01-17T00:03:20.583Z,2.40
2023-01-17T00:05:48.496Z,2.40
2023-01-17T00:08:22.812Z,2.40
2023-01-17T00:10:49.846Z,2.30
2023-01-17T00:13:23.138Z,2.30
2023-01-17T00:15:56.548Z,2.40
2023-01-17T00:18:31.659Z,2.40
2023-01-17T00:20:58.928Z,2.30
2023-01-17T00:23:33.197Z,2.20
2023-01-17T00:26:07.873Z,2.20
2023-01-17T00:28:39.898Z,2.20
2023-01-17T00:31:15.221Z,2.20
2023-01-17T00:33:42.176Z,2.10
2023-01-17T00:36:16.648Z,2.10
2023-01-17T00:38:43.516Z,2.10
2023-01-17T00:41:16.095Z,2.10
2023-01-17T00:43:50.164Z,2.00
2023-01-17T00:46:17.958Z,1.90
2023-01-17T00:48:44.989Z,2.00
2023-01-17T00:51:18.149Z,2.20
2023-01-17T00:53:45.140Z,2.00
2023-01-17T00:56:18.188Z,2.00
2023-01-17T00:58:51.137Z,2.10
2023-01-17T01:01:18.114Z,2.00
2023-01-17T01:03:51.161Z,1.90
2023-01-17T01:06:18.096Z,2.00
2023-01-17T01:08:51.189Z,2.10
2023-01-17T01:11:20.105Z,2.10
2023-01-17T01:13:53.173Z,2.10
2023-01-17T01:16:26.915Z,2.30
2023-01-17T01:19:00.185Z,2.30
2023-01-17T01:21:27.084Z,2.30
2023-01-17T01:24:00.227Z,2.50
2023-01-17T01:26:27.093Z,2.60
2023-01-17T01:28:54.014Z,2.60
2023-01-17T01:31:27.176Z,2.70
2023-01-17T01:33:54.126Z,2.70
2023-01-17T01:36:27.246Z,2.70
2023-01-17T01:38:54.204Z,2.70
2023-01-17T01:41:27.201Z,2.80
2023-01-17T01:43:55.119Z,2.80
2023-01-17T01:46:31.236Z,2.80
2023-01-17T01:49:01.305Z,2.70
2023-01-17T01:51:41.252Z,2.70
2023-01-17T01:54:15.440Z,2.60
2023-01-17T01:56:54.381Z,2.40
2023-01-17T01:59:34.244Z,2.30
2023-01-17T02:02:01.089Z,2.30
2023-01-17T02:04:34.203Z,2.30
2023-01-17T02:07:18.783Z,2.30
2023-01-17T02:09:52.243Z,2.30
2023-01-17T02:12:19.316Z,2.30
2023-01-17T02:14:53.279Z,2.20
2023-01-17T02:17:49.492Z,2.30
2023-01-17T02:21:04.236Z,2.40
2023-01-17T02:23:42.860Z,2.40
2023-01-17T02:26:56.208Z,2.40
2023-01-17T02:29:57.122Z,2.30
2023-01-17T02:33:00.238Z,2.30
2023-01-17T02:36:06.995Z,2.30
2023-01-17T02:38:59.290Z,2.30
2023-01-17T02:41:38.765Z,2.20
2023-01-17T02:44:13.234Z,2.10
2023-01-17T02:46:55.722Z,2.00
2023-01-17T02:49:35.308Z,1.90
2023-01-17T02:52:36.982Z,2.00
2023-01-17T02:55:54.279Z,2.00
2023-01-17T02:58:55.170Z,2.10
2023-01-17T03:01:59.402Z,2.20
2023-01-17T03:04:51.205Z,2.20
2023-01-17T03:07:31.260Z,2.10
2023-01-17T03:10:00.348Z,2.10
2023-01-17T03:12:30.432Z,2.10
2023-01-17T03:15:04.240Z,2.10
2023-01-17T03:17:32.854Z,2.10
2023-01-17T03:20:06.233Z,2.20
2023-01-17T03:22:33.105Z,2.20
2023-01-17T03:25:06.258Z,2.20
2023-01-17T03:27:33.144Z,2.10
2023-01-17T03:30:06.212Z,2.10
2023-01-17T03:32:33.084Z,2.10
2023-01-17T03:35:06.256Z,2.10
2023-01-17T03:37:33.182Z,2.10
2023-01-17T03:40:06.276Z,2.10
2023-01-17T03:42:39.398Z,2.00
2023-01-17T03:45:06.815Z,2.10
2023-01-17T03:47:42.243Z,2.00
2023-01-17T03:50:10.198Z,1.90
2023-01-17T03:52:43.365Z,2.00
2023-01-17T03:55:10.417Z,2.00
2023-01-17T03:57:44.300Z,2.00
2023-01-17T04:00:18.245Z,2.00
2023-01-17T04:02:45.140Z,2.00
2023-01-17T04:05:18.301Z,2.10
2023-01-17T04:07:45.205Z,2.20
2023-01-17T04:10:18.248Z,2.30
2023-01-17T04:12:45.136Z,2.30
2023-01-17T04:15:18.231Z,2.40
2023-01-17T04:17:45.120Z,2.40
2023-01-17T04:20:42.257Z,2.40
2023-01-17T04:23:15.289Z,2.40
2023-01-17T04:25:42.235Z,2.50
2023-01-17T04:28:09.809Z,2.50
2023-01-17T04:30:43.278Z,2.60
2023-01-17T04:33:10.135Z,2.70
2023-01-17T04:35:43.250Z,2.60
2023-01-17T04:38:10.137Z,2.70
2023-01-17T04:40:43.278Z,2.60
2023-01-17T04:43:10.165Z,2.50
2023-01-17T04:45:43.272Z,2.50
2023-01-17T04:48:10.380Z,2.40
2023-01-17T04:50:37.263Z,2.50
2023-01-17T04:53:10.272Z,2.50
2023-01-17T04:55:37.127Z,2.60
2023-01-17T04:58:04.111Z,2.70
2023-01-17T05:00:37.296Z,2.60
2023-01-17T05:03:04.178Z,2.70
2023-01-17T05:05:37.317Z,2.70
2023-01-17T05:08:04.383Z,2.70
2023-01-17T05:10:31.295Z,2.80
2023-01-17T05:13:06.341Z,2.90
2023-01-17T05:15:33.314Z,2.90
2023-01-17T05:18:00.202Z,3.00
2023-01-17T05:20:33.265Z,3.10
2023-01-17T05:23:00.177Z,3.10
2023-01-17T05:25:35.290Z,3.10
2023-01-17T05:28:09.343Z,3.10
2023-01-17T05:30:36.224Z,3.10
2023-01-17T05:33:10.340Z,2.90
2023-01-17T05:35:37.392Z,2.70
2023-01-17T05:38:04.347Z,2.60
2023-01-17T05:40:39.270Z,2.50
2023-01-17T05:43:06.129Z,2.40
2023-01-17T05:45:40.289Z,2.50
2023-01-17T05:48:14.263Z,2.50
2023-01-17T05:50:41.216Z,2.40
2023-01-17T05:53:11.108Z,2.40
2023-01-17T05:55:44.301Z,2.40
2023-01-17T05:58:17.706Z,2.50
2023-01-17T06:00:51.322Z,2.50
2023-01-17T06:03:18.240Z,2.50
2023-01-17T06:05:51.335Z,2.50
2023-01-17T06:08:18.260Z,2.60
2023-01-17T06:10:45.245Z,2.40
2023-01-17T06:13:20.363Z,2.40
2023-01-17T06:15:47.527Z,2.40
2023-01-17T06:18:23.370Z,2.40
2023-01-17T06:20:53.453Z,2.60
2023-01-17T06:23:27.310Z,2.60
2023-01-17T06:25:54.246Z,2.50
2023-01-17T06:28:29.343Z,2.60
2023-01-17T06:30:56.332Z,2.60
2023-01-17T06:33:23.358Z,2.60
2023-01-17T06:35:57.304Z,2.60
2023-01-17T06:38:30.290Z,2.60
2023-01-17T06:40:57.205Z,2.60
2023-01-17T06:43:30.315Z,2.60
2023-01-17T06:46:03.976Z,2.80
2023-01-17T06:48:37.297Z,2.70
2023-01-17T06:51:04.270Z,2.80
2023-01-17T06:53:37.421Z,2.60
2023-01-17T06:56:04.623Z,2.70
2023-01-17T06:58:38.353Z,2.80
2023-01-17T07:01:12.443Z,2.80
2023-01-17T07:03:46.763Z,2.80
2023-01-17T07:06:13.702Z,2.80
2023-01-17T07:08:40.671Z,2.80
2023-01-17T07:11:14.364Z,2.70
2023-01-17T07:13:48.701Z,2.70
2023-01-17T07:16:22.467Z,2.70
2023-01-17T07:18:49.462Z,2.70
2023-01-17T07:21:23.387Z,2.90
2023-01-17T07:23:50.534Z,2.90
2023-01-17T07:26:24.324Z,2.80
2023-01-17T07:28:51.356Z,2.90
2023-01-17T07:31:24.448Z,2.90
2023-01-17T07:33:51.492Z,3.00
2023-01-17T07:36:18.404Z,3.10
2023-01-17T07:38:53.358Z,3.10
2023-01-17T07:41:20.347Z,3.10
2023-01-17T07:43:55.489Z,3.10
2023-01-17T07:46:23.323Z,3.10
2023-01-17T07:48:56.388Z,3.20
2023-01-17T07:51:23.293Z,3.20
2023-01-17T07:53:50.287Z,3.20
2023-01-17T07:56:23.360Z,3.30
2023-01-17T07:58:50.303Z,3.30
2023-01-17T08:01:24.596Z,3.40
2023-01-17T08:03:51.803Z,3.50
2023-01-17T08:06:31.445Z,3.40
2023-01-17T08:08:58.369Z,3.50
2023-01-17T08:11:25.757Z,3.30
2023-01-17T08:13:59.416Z,3.50
2023-01-17T08:16:33.431Z,3.70
2023-01-17T08:19:00.368Z,3.60
2023-01-17T08:21:34.347Z,3.60
2023-01-17T08:24:01.376Z,3.60
2023-01-17T08:26:28.303Z,3.70
2023-01-17T08:29:05.389Z,3.70
2023-01-17T08:31:33.963Z,3.70
2023-01-17T08:34:07.341Z,3.80
2023-01-17T08:36:34.295Z,3.90
2023-01-17T08:39:01.258Z,3.90
2023-01-17T08:41:34.429Z,4.00
2023-01-17T08:44:01.655Z,4.00
2023-01-17T08:46:35.429Z,4.10
2023-01-17T08:49:02.483Z,4.20
2023-01-17T08:51:36.375Z,4.20
2023-01-17T08:54:03.357Z,4.20
2023-01-17T08:56:36.375Z,4.10
2023-01-17T08:59:03.312Z,4.10
2023-01-17T09:01:36.476Z,4.30
2023-01-17T09:04:03.475Z,4.30
2023-01-17T09:06:37.364Z,4.40
2023-01-17T09:09:04.922Z,4.40
2023-01-17T09:11:38.437Z,4.40
2023-01-17T09:14:05.413Z,4.60
2023-01-17T09:16:39.407Z,4.60
2023-01-17T09:19:12.400Z,4.70
2023-01-17T09:21:39.839Z,4.60
2023-01-17T09:24:13.436Z,4.60
2023-01-17T09:26:46.378Z,4.90
2023-01-17T09:29:13.551Z,5.20
2023-01-17T09:31:40.511Z,5.20
2023-01-17T09:34:13.425Z,5.30
2023-01-17T09:36:48.369Z,5.30
2023-01-17T09:39:21.411Z,5.60
2023-01-17T09:42:18.350Z,5.80
2023-01-17T09:44:56.423Z,5.80
2023-01-17T09:47:52.466Z,5.70
2023-01-17T09:50:44.420Z,5.90
2023-01-17T09:53:23.481Z,5.90
2023-01-17T09:56:06.418Z,5.90
2023-01-17T09:58:48.453Z,5.90
2023-01-17T10:01:43.576Z,5.90
2023-01-17T10:04:53.616Z,5.80
2023-01-17T10:07:42.460Z,5.80
2023-01-17T10:10:53.453Z,5.80
2023-01-17T10:13:49.130Z,5.80
2023-01-17T10:16:34.442Z,5.90
2023-01-17T10:19:46.391Z,5.80
2023-01-17T10:22:16.236Z,5.80
2023-01-17T10:24:52.402Z,5.80
2023-01-17T10:27:59.145Z,5.70
2023-01-17T10:30:44.480Z,5.70
2023-01-17T10:33:32.427Z,5.60
2023-01-17T10:36:22.988Z,5.60
2023-01-17T10:39:02.396Z,5.60
2023-01-17T10:41:44.409Z,5.70
2023-01-17T10:44:20.303Z,5.60
2023-01-17T10:47:18.414Z,5.80
2023-01-17T10:49:51.638Z,5.60
2023-01-17T10:52:43.483Z,5.60
2023-01-17T10:55:59.570Z,5.60
2023-01-17T10:58:33.403Z,5.80
2023-01-17T11:01:33.523Z,6.00
2023-01-17T11:04:00.531Z,6.00
2023-01-17T11:06:34.409Z,6.00
2023-01-17T11:09:01.565Z,6.00
2023-01-17T11:11:32.022Z,5.90
2023-01-17T11:14:12.421Z,6.00
2023-01-17T11:16:45.491Z,6.10
2023-01-17T11:19:38.391Z,6.10
2023-01-17T11:22:13.444Z,6.30
2023-01-17T11:25:01.489Z,6.30
2023-01-17T11:27:31.184Z,6.20
2023-01-17T11:30:14.499Z,6.40
2023-01-17T11:33:02.452Z,6.50
2023-01-17T11:35:43.551Z,6.90
2023-01-17T11:38:20.513Z,7.10
2023-01-17T11:40:55.454Z,7.20
2023-01-17T11:43:26.889Z,7.30
2023-01-17T11:46:22.508Z,7.40
2023-01-17T11:48:56.323Z,7.50
2023-01-17T11:51:40.465Z,7.90
2023-01-17T11:54:21.535Z,7.80
2023-01-17T11:56:54.497Z,7.90
2023-01-17T11:59:33.665Z,8.00
2023-01-17T12:02:53.451Z,7.90
2023-01-17T12:05:43.235Z,7.90
2023-01-17T12:08:22.503Z,8.10
2023-01-17T12:11:11.459Z,8.30
2023-01-17T12:14:09.473Z,8.50
2023-01-17T12:17:12.025Z,8.50
2023-01-17T12:20:07.551Z,8.30
2023-01-17T12:23:10.535Z,8.30
2023-01-17T12:26:27.456Z,8.30
2023-01-17T12:29:22.476Z,8.30
2023-01-17T12:32:30.489Z,8.50
2023-01-17T12:35:23.890Z,8.70
2023-01-17T12:38:05.254Z,8.70
2023-01-17T12:40:46.477Z,8.70
2023-01-17T12:43:38.536Z,8.60
2023-01-17T12:46:18.552Z,8.50
2023-01-17T12:48:51.477Z,8.40
2023-01-17T12:51:39.578Z,8.30
2023-01-17T12:54:52.538Z,8.40
2023-01-17T12:57:31.503Z,8.20
2023-01-17T13:00:17.736Z,8.20
2023-01-17T13:03:00.519Z,8.00
2023-01-17T13:05:46.498Z,8.00
2023-01-17T13:08:50.510Z,8.00
2023-01-17T13:11:22.660Z,8.20
2023-01-17T13:13:49.806Z,8.20
2023-01-17T13:16:56.512Z,8.10
2023-01-17T13:19:51.519Z,8.10
2023-01-17T13:22:20.951Z,8.10
2023-01-17T13:24:58.507Z,8.30
2023-01-17T13:27:40.541Z,8.30
2023-01-17T13:30:36.070Z,8.10
2023-01-17T13:33:50.498Z,8.20
2023-01-17T13:36:48.228Z,8.10
2023-01-17T13:40:05.608Z,8.20
2023-01-17T13:42:59.618Z,7.90
2023-01-17T13:46:06.623Z,7.80
2023-01-17T13:48:34.964Z,7.90
2023-01-17T13:51:15.572Z,8.00
2023-01-17T13:53:42.402Z,8.00
2023-01-17T13:56:35.538Z,8.00
2023-01-17T13:59:02.917Z,7.90
2023-01-17T14:01:39.703Z,7.80
2023-01-17T14:04:14.525Z,7.50
2023-01-17T14:06:46.977Z,7.20
2023-01-17T14:09:24.537Z,7.20
2023-01-17T14:12:16.833Z,7.30
2023-01-17T14:14:55.550Z,7.20
2023-01-17T14:17:22.496Z,7.10
2023-01-17T14:19:59.523Z,6.80
2023-01-17T14:22:39.122Z,6.90
2023-01-17T14:25:18.587Z,6.90
2023-01-17T14:27:54.809Z,7.10
2023-01-17T14:30:38.506Z,7.00
2023-01-17T14:33:16.781Z,7.00
2023-01-17T14:36:03.560Z,6.90
2023-01-17T14:38:32.303Z,6.70
2023-01-17T14:41:12.590Z,6.70
2023-01-17T14:43:41.896Z,6.60
2023-01-17T14:46:33.666Z,6.60
2023-01-17T14:49:02.864Z,6.10
2023-01-17T14:51:36.556Z,6.30
2023-01-17T14:54:04.569Z,6.20
2023-01-17T14:56:38.667Z,6.10
2023-01-17T14:59:17.340Z,6.00
2023-01-17T15:02:06.275Z,6.00
2023-01-17T15:04:34.003Z,5.90
2023-01-17T15:07:07.718Z,5.80
2023-01-17T15:09:37.888Z,5.70
2023-01-17T15:12:11.581Z,5.80
2023-01-17T15:14:48.556Z,5.60
2023-01-17T15:17:26.621Z,5.60
2023-01-17T15:20:01.198Z,5.60
2023-01-17T15:22:34.608Z,5.60
2023-01-17T15:25:01.582Z,5.60
2023-01-17T15:27:35.580Z,5.50
2023-01-17T15:30:02.732Z,5.60
2023-01-17T15:32:36.609Z,5.70
2023-01-17T15:35:22.588Z,5.80
2023-01-17T15:37:53.311Z,5.60
2023-01-17T15:40:31.590Z,5.70
2023-01-17T15:42:59.613Z,5.70
2023-01-17T15:45:38.725Z,5.70
2023-01-17T15:48:38.008Z,5.80
2023-01-17T15:51:11.769Z,5.80
2023-01-17T15:53:41.410Z,5.70
2023-01-17T15:56:38.618Z,5.70
2023-01-17T16:00:07.703Z,5.50
2023-01-17T16:02:46.615Z,5.40
2023-01-17T16:05:55.583Z,5.40
2023-01-17T16:08:43.579Z,5.40
2023-01-17T16:11:11.273Z,5.50
2023-01-17T16:13:44.620Z,5.40
2023-01-17T16:16:20.871Z,5.40
2023-01-17T16:18:54.601Z,5.50
2023-01-17T16:21:34.640Z,5.50
2023-01-17T16:24:08.853Z,5.40
2023-01-17T16:26:36.030Z,5.50
2023-01-17T16:29:09.651Z,5.50
2023-01-17T16:31:36.712Z,5.40
2023-01-17T16:34:05.589Z,5.50
2023-01-17T16:36:38.683Z,5.40
2023-01-17T16:39:12.770Z,5.40
2023-01-17T16:41:46.686Z,5.30
2023-01-17T16:44:13.703Z,5.30
2023-01-17T16:46:47.631Z,5.30
2023-01-17T16:49:14.636Z,5.30
2023-01-17T16:51:47.638Z,5.40
2023-01-17T16:54:14.952Z,5.30
2023-01-17T16:56:42.035Z,5.20
2023-01-17T16:59:15.736Z,5.30
2023-01-17T17:01:42.786Z,5.20
2023-01-17T17:04:18.593Z,5.40
2023-01-17T17:06:45.871Z,5.40
2023-01-17T17:09:19.639Z,5.30
2023-01-17T17:11:52.591Z,5.50
2023-01-17T17:14:25.694Z,5.50
2023-01-17T17:16:52.915Z,5.50
2023-01-17T17:19:29.790Z,5.50
2023-01-17T17:22:00.663Z,5.50
2023-01-17T17:24:34.807Z,5.50
2023-01-17T17:27:01.954Z,5.50
2023-01-17T17:29:29.129Z,5.50
2023-01-17T17:32:02.660Z,5.50
2023-01-17T17:34:29.758Z,5.50
2023-01-17T17:37:03.889Z,5.60
2023-01-17T17:39:37.724Z,5.60
2023-01-17T17:42:04.935Z,5.60
2023-01-17T17:44:38.675Z,5.50
2023-01-17T17:47:11.676Z,5.50
2023-01-17T17:49:39.332Z,5.50
2023-01-17T17:52:13.645Z,5.50
2023-01-17T17:54:46.686Z,5.50
2023-01-17T17:57:13.596Z,5.40
2023-01-17T17:59:40.500Z,5.40
2023-01-17T18:02:13.725Z,5.50
2023-01-17T18:04:40.676Z,5.40
2023-01-17T18:07:07.587Z,5.50
2023-01-17T18:09:40.668Z,5.50
2023-01-17T18:12:14.654Z,5.50
2023-01-17T18:14:41.599Z,5.40
2023-01-17T18:17:14.620Z,5.50
2023-01-17T18:19:47.635Z,5.50
2023-01-17T18:22:20.644Z,5.30
2023-01-17T18:24:47.567Z,5.50
2023-01-17T18:27:20.681Z,5.50
2023-01-17T18:29:53.671Z,5.40
2023-01-17T18:32:26.654Z,5.40
2023-01-17T18:34:53.636Z,5.30
2023-01-17T18:37:26.613Z,5.30
2023-01-17T18:39:53.553Z,5.30
2023-01-17T18:42:26.677Z,5.20
2023-01-17T18:44:53.591Z,5.20
2023-01-17T18:47:26.696Z,5.30
2023-01-17T18:49:59.696Z,5.30
2023-01-17T18:52:26.600Z,5.30
2023-01-17T18:54:53.435Z,5.30
2023-01-17T18:57:26.639Z,5.30
2023-01-17T18:59:59.705Z,5.30
2023-01-17T19:02:26.559Z,5.30
2023-01-17T19:04:53.629Z,5.50
2023-01-17T19:07:26.693Z,5.40
2023-01-17T19:09:53.613Z,5.30
2023-01-17T19:12:26.682Z,5.30
2023-01-17T19:14:53.614Z,5.50
2023-01-17T19:17:20.539Z,5.50
2023-01-17T19:19:57.030Z,5.40
2023-01-17T19:22:24.100Z,5.30
2023-01-17T19:24:57.721Z,5.30
2023-01-17T19:27:37.684Z,5.30
2023-01-17T19:30:11.664Z,5.30
2023-01-17T19:32:38.573Z,5.20
2023-01-17T19:35:12.671Z,5.30
2023-01-17T19:37:43.642Z,5.30
2023-01-17T19:40:17.731Z,5.40
2023-01-17T19:42:51.697Z,5.30
2023-01-17T19:45:24.709Z,5.30
2023-01-17T19:47:57.969Z,5.20
2023-01-17T19:50:24.963Z,5.30
2023-01-17T19:52:58.703Z,5.30
2023-01-17T19:55:25.720Z,5.30
2023-01-17T19:57:52.638Z,5.30
2023-01-17T20:00:30.223Z,5.40
2023-01-17T20:03:03.792Z,5.40
2023-01-17T20:05:30.693Z,5.40
2023-01-17T20:08:03.650Z,5.50
2023-01-17T20:10:30.590Z,5.60
2023-01-17T20:13:03.976Z,5.40
2023-01-17T20:15:37.927Z,5.40
2023-01-17T20:18:04.959Z,5.30
2023-01-17T20:20:56.128Z,5.20
2023-01-17T20:23:23.845Z,5.30
2023-01-17T20:26:00.778Z,5.20
2023-01-17T20:28:28.888Z,5.20
2023-01-17T20:30:55.970Z,5.10
2023-01-17T20:33:30.688Z,5.20
2023-01-17T20:36:11.409Z,5.10
2023-01-17T20:38:38.735Z,5.20
2023-01-17T20:41:12.703Z,5.30
2023-01-17T20:43:42.650Z,5.10
2023-01-17T20:46:09.932Z,5.00
2023-01-17T20:48:43.829Z,4.90
2023-01-17T20:51:17.728Z,4.80
2023-01-17T20:53:45.582Z,4.90
2023-01-17T20:56:20.776Z,4.70
2023-01-17T20:58:49.573Z,4.70
2023-01-17T21:01:24.849Z,4.80
2023-01-17T21:03:52.328Z,4.70
2023-01-17T21:06:26.765Z,4.80
2023-01-17T21:08:53.763Z,4.90
2023-01-17T21:11:31.794Z,4.80
2023-01-17T21:13:58.693Z,4.60
2023-01-17T21:16:31.744Z,4.60
2023-01-17T21:18:58.727Z,4.70
2023-01-17T21:21:33.750Z,4.60
2023-01-17T21:24:00.717Z,4.50
2023-01-17T21:26:34.822Z,4.30
2023-01-17T21:29:01.809Z,4.50
2023-01-17T21:31:30.260Z,4.40
2023-01-17T21:34:08.729Z,4.40
2023-01-17T21:36:46.714Z,4.40
2023-01-17T21:39:24.895Z,4.40
2023-01-17T21:41:58.849Z,4.30
2023-01-17T21:44:25.989Z,4.20
2023-01-17T21:46:55.974Z,4.30
2023-01-17T21:49:29.744Z,4.20
2023-01-17T21:51:56.744Z,4.30
2023-01-17T21:54:34.742Z,4.40
2023-01-17T21:57:01.757Z,4.30
2023-01-17T21:59:31.253Z,4.30
2023-01-17T22:02:04.828Z,4.20
2023-01-17T22:04:38.737Z,4.40
2023-01-17T22:07:11.806Z,4.40
2023-01-17T22:09:38.805Z,4.30
2023-01-17T22:12:12.797Z,4.40
2023-01-17T22:14:39.792Z,4.40
2023-01-17T22:17:12.773Z,4.40
2023-01-17T22:19:39.655Z,4.40
2023-01-17T22:22:12.782Z,4.40
2023-01-17T22:24:39.823Z,4.40
2023-01-17T22:27:07.043Z,4.50
2023-01-17T22:29:40.773Z,4.40
2023-01-17T22:32:07.697Z,4.30
2023-01-17T22:34:34.591Z,4.20
2023-01-17T22:37:08.825Z,4.10
2023-01-17T22:39:42.761Z,4.30
2023-01-17T22:42:09.673Z,4.30
2023-01-17T22:44:42.850Z,4.20
2023-01-17T22:47:15.783Z,4.10
2023-01-17T22:49:49.816Z,4.30
2023-01-17T22:52:17.306Z,4.20
2023-01-17T22:54:50.875Z,4.10
2023-01-17T22:57:24.786Z,4.00
2023-01-17T22:59:51.827Z,3.90
2023-01-17T23:02:25.835Z,3.70
2023-01-17T23:04:52.869Z,3.70
2023-01-17T23:07:25.835Z,3.60
2023-01-17T23:09:52.688Z,3.60
2023-01-17T23:12:19.684Z,3.40
2023-01-17T23:14:52.796Z,3.40
2023-01-17T23:17:23.849Z,3.40
2023-01-17T23:19:59.798Z,3.30
2023-01-17T23:22:35.788Z,3.30
2023-01-17T23:25:17.804Z,3.20
2023-01-17T23:27:46.537Z,3.20
2023-01-17T23:30:47.808Z,3.10
2023-01-17T23:33:21.904Z,3.00
2023-01-17T23:35:49.155Z,3.00
2023-01-17T23:38:24.805Z,3.00
2023-01-17T23:40:53.107Z,3.00
2023-01-17T23:43:27.121Z,3.10
2023-01-17T23:45:54.448Z,3.20
2023-01-17T23:48:29.458Z,3.10
2023-01-17T23:51:03.368Z,3.10
2023-01-17T23:53:37.406Z,3.30
2023-01-17T23:56:17.230Z,3.20
2023-01-17T23:58:50.809Z,3.20
